Terminal Aerodrome Forecast
Issued by NWS Sterling, VA

Home | Current Version | Previous Version | Text Only | Print | Product List | Glossary On
Versions: 1 2 3 4 5 6 7 8 9 10 11 12 13 14 15 16 17 18 19 20 21 22 23 24 25 26 27 28 29
000
FTUS41 KLWX 191100
TAFIAD
TAF
KIAD 191137Z 1912/2018 30008KT P6SM BKN040
     FM191500 31011KT P6SM SCT040
     FM192300 32005KT P6SM FEW040 SCT250
     FM201700 VRB03KT P6SM BKN110=

USA.gov is the U.S. government's official web portal to all federal, state and local government web resources and services.